新千歳空港の過去48時間の天気

新千歳空港 (Sapporo/New Chitose)

現在時刻: 2/25 17:58 JST (2/25 08:58 UTC) 以下の時間は現地時間です。

過去48時間のMETAR気象情報
時間 風向 風速(m/s) 視程 気温(℃) 湿度(%) 気圧(hPa) 天気現象
25 17:30 西 2 10km以上 0 74 1021 周辺でしゅう雨
25 17:00 2 10km以上 1 60 1021 周辺でしゅう雨
25 16:30 北北西 2 10km以上 1 60 1021 周辺でしゅう雨
25 16:00 北北西 3 10km以上 1 60 1020 周辺でしゅう雨
25 15:30 北北西 3 10km以上 1 60 1020 周辺でしゅう雨
25 15:00 北北西 3 10km以上 2 55 1020 周辺でしゅう雨
25 14:30 2 10km以上 2 55 1020 周辺でしゅう雨
25 14:00 4 10km以上 1 60 1020 周辺でしゅう雨
25 13:30 4 10km以上 2 60 1020
25 13:00 3 10km以上 1 60 1020
25 12:30 2 10km以上 2 60 1020
25 12:00 3 10km以上 1 69 1020
25 11:30 2 10km以上 1 75 1021
25 11:00 2 10km以上 1 75 1021
25 10:30 2 10km以上 0 86 1021
25 10:00 北北東 2 10km以上 -1 93 1021
25 09:30 北北西 2 8000m -1 100 1021
25 09:16 北北西 2 3200m -2 100 1021 もや
25 09:09 不定 1 2400m -2 100 1021 散在した霧 もや
25 08:30 不定 1 1200m -2 100 1021 散在した霧 もや
25 08:17 2 900m -2 100 1021 氷霧
25 08:07 2 2300m -2 100 1021 弱いしゅう雪 もや
25 08:00 2 2500m -2 100 1021 弱いしゅう雪 もや
25 07:50 2 3100m -3 100 1021 散在した霧 弱いしゅう雪
25 07:30 北西 2 3500m -3 100 1020 部分霧 弱いしゅう雪
25 07:16 北北西 2 1600m -3 100 1020 散在した霧 弱いしゅう雪
25 07:00 2 1300m -3 100 1020 散在した霧 弱いしゅう雪
25 06:48 北北東 2 900m -3 100 1020 弱いしゅう雪 氷霧
25 06:34 1 1400m -3 100 1020 散在した霧 弱いしゅう雪
25 06:21 1 3100m -4 100 1020 弱いしゅう雪
25 06:00 静穏 0 4500m -3 100 1020 弱いしゅう雪
25 05:30 静穏 0 7000m -3 100 1020 弱いしゅう雪
25 05:00 北北西 3 6000m -5 100 1020 弱いしゅう雪
25 04:30 3 2500m -2 100 1019 弱いしゅう雪
25 04:00 3 4000m -2 100 1019 弱いしゅう雪
25 03:30 4 3000m -3 100 1019 弱いしゅう雪 散在した霧
25 03:00 3 5000m -4 100 1018 散在した霧 弱いしゅう雪
25 02:30 北北東 2 2000m -5 100 1018 散在した霧 弱いしゅう雪
25 02:00 不定 1 4000m -3 100 1018 弱いしゅう雪
25 01:30 北西 2 2000m -2 100 1018 弱いしゅう雪
25 01:00 2 3500m -2 100 1018 弱いしゅう雪
25 00:30 北北西 3 1800m -1 100 1018 弱いしゅう雪
25 00:24 北北西 2 1200m -1 100 1018 弱いしゅう雪
25 00:00 北北西 3 900m -1 100 1017 しゅう雪
24 23:30 北西 2 5000m -1 100 1017 弱いしゅう雪
24 23:00 北北西 3 1400m -1 100 1017 弱いしゅう雪
24 22:30 北北西 3 2500m -1 100 1017 弱いしゅう雪
24 22:13 北北西 3 2400m -1 100 1017 弱いしゅう雪
24 22:00 北北西 3 1200m -1 100 1017 しゅうあられ 弱い雪
24 21:48 北北西 3 3000m -1 100 1016 弱いしゅう雪 弱いしゅうあられ
24 21:30 不定 1 6000m -1 100 1016 弱いしゅう雪
24 21:00 2 6000m -1 100 1016 弱いしゅう雪
24 20:30 1 5000m -1 100 1015 弱いしゅう雪
24 20:00 2 6000m -1 100 1015 弱いしゅう雪
24 19:30 北北東 1 7000m -1 100 1015 弱いしゅう雪
24 19:00 不定 1 5000m -1 100 1015 弱いしゅう雪
24 18:30 1 4000m -1 100 1015 弱いしゅう雪
24 18:00 2 4000m -1 100 1015 弱いしゅう雪
24 17:30 2 4500m 0 86 1015 弱いしゅう雪
24 17:18 北北西 2 4900m 0 86 1015 弱いしゅう雪
24 17:00 北北西 2 10km以上 0 86 1014 弱いしゅう雪
24 16:30 北北東 3 10km以上 1 75 1014 弱いしゅう雪
24 16:00 北東 3 10km以上 1 75 1014 周辺でしゅう雨
24 15:30 北北東 2 8000m 1 69 1014 弱いしゅう雪
24 15:00 不定 1 6000m 1 69 1014 弱いしゅう雪
24 14:38 3 4900m 2 64 1014 弱いしゅう雪
24 14:30 3 10km以上 2 60 1014 弱いしゅう雪
24 14:00 北北東 4 10km以上 2 60 1013
24 13:30 東北東 3 10km以上 3 48 1013
24 13:00 3 10km以上 3 48 1014
24 12:30 3 10km以上 2 51 1014
24 12:00 北東 3 10km以上 2 51 1015
24 11:30 北東 3 10km以上 2 51 1015
24 11:00 北東 2 10km以上 2 51 1015
24 10:30 北東 2 10km以上 2 48 1016
24 10:00 不定 1 10km以上 2 51 1015
24 09:30 不定 1 10km以上 1 55 1015
24 09:00 東北東 2 10km以上 0 69 1016
24 08:30 南東 1 10km以上 -3 80 1016
24 08:00 2 10km以上 -6 100 1016
24 07:30 不定 1 10km以上 -6 100 1015
24 07:00 不定 1 10km以上 -7 100 1015
24 06:30 南東 1 10km以上 -6 100 1015
24 06:00 1 10km以上 -8 100 1015
24 05:30 1 10km以上 -7 93 1015
24 05:00 南南東 2 10km以上 -7 93 1015
24 04:30 不定 1 10km以上 -6 100 1014
24 04:00 不定 1 10km以上 -6 100 1014
24 03:30 西南西 3 10km以上 -6 100 1014
24 03:00 不定 1 10km以上 -4 93 1014
24 02:30 西北西 5 10km以上 -4 86 1014
24 02:00 西北西 3 10km以上 -3 86 1013
24 01:30 南西 2 10km以上 -1 80 1013
24 01:00 南西 2 10km以上 -2 100 1013
24 00:30 西北西 2 10km以上 -2 93 1013
24 00:00 北北西 4 10km以上 -1 86 1012
23 23:30 北北西 6 10km以上 0 86 1012 弱いしゅう雪
23 23:00 北北西 6 10km以上 0 86 1012 弱いしゅう雪
23 22:30 北北西 5 10km以上 0 93 1012 弱いしゅう雪
23 22:00 北西 5 5000m 0 93 1011 弱いしゅう雪
23 21:30 北北西 7 8000m 0 93 1011 弱いしゅう雪
23 21:00 北西 8 5000m 0 93 1010 弱いしゅう雪
23 20:30 北西 9 4000m 0 93 1010 弱いしゅう雪
23 20:10 北西 7 3200m 0 100 1009 弱いしゅう雪
23 20:00 北西 7 1600m 0 100 1009 弱いしゅう雪
23 19:30 北北西 7 2200m 0 100 1009 弱いしゅう雪
23 19:14 北北西 7 1800m 0 100 1009 弱いしゅう雪
23 19:00 北北西 8 2000m 0 100 1009 弱いしゅう雪
23 18:38 北北西 9 1400m 0 100 1008 弱いしゅう雪
23 18:00 北西 10 10km以上 1 86 1007 弱いしゅう雪
RJCC 250830Z 28004KT 9999 VCSH FEW015 SCT040 BKN070 M00/M04 Q1021 RMK 1ST015 3CU040 6AC070 A3016 SH W
RJCC 250800Z 35003KT 9999 VCSH FEW015 SCT040 BKN070 01/M06 Q1021 RMK 1ST015 3CU040 6AC070 A3015 SH W
RJCC 250730Z 33003KT 290V020 9999 VCSH FEW015 SCT040 BKN070 01/M06 Q1021 RMK 1ST015 4CU040 6AC070 A3015 SH W
RJCC 250700Z 34005KT 9999 VCSH FEW015 SCT040 BKN070 01/M06 Q1020 RMK 1ST015 4CU040 6AC070 A3014 SH W
RJCC 250630Z 34005KT 9999 VCSH FEW015 SCT035 BKN070 01/M06 Q1020 RMK 1ST015 4CU035 7AC070 A3014 SH W
RJCC 250600Z 34005KT 9999 VCSH FEW015 BKN035 02/M06 Q1020 RMK 1ST015 7CU035 A3014 SH W
RJCC 250530Z 35004KT 320V030 9999 VCSH FEW020 BKN035 02/M06 Q1020 RMK 1CU020 7CU035 A3013 SH W
RJCC 250500Z 36007KT 9999 VCSH FEW020 BKN035 01/M06 Q1020 RMK 1CU020 6CU035 A3013 SH W
RJCC 250430Z 35008KT 330V030 9999 FEW020 SCT045 02/M05 Q1020 RMK 1CU020 3CU045 A3012
RJCC 250400Z 01006KT 9999 FEW020 SCT045 01/M06 Q1020 RMK 1CU020 4CU045 A3013
RJCC 250330Z 35004KT 9999 FEW020 BKN045 02/M05 Q1020 RMK 1CU020 6CU045 A3014
RJCC 250300Z 36005KT 320V020 9999 FEW020 BKN040 01/M04 Q1020 RMK 1CU020 6CU040 A3015
RJCC 250230Z 35004KT 9999 FEW020 SCT040 01/M03 Q1021 RMK 1CU020 3CU040 A3015
RJCC 250200Z 36003KT 9999 FEW020 01/M03 Q1021 RMK 1CU020 A3016
RJCC 250130Z 01004KT 9999 FEW005 SCT035 M00/M02 Q1021 RMK 1ST005 3CU035 A3016
RJCC 250100Z 02003KT 9999 FEW003 BKN040 M01/M02 Q1021 RMK 1ST003 5CU040 A3016
RJCC 250030Z 34003KT 8000 FEW003 BKN040 M01/M01 Q1021 RMK 2ST003 6CU040 A3016
RJCC 250016Z 34003KT 320V020 3200 BR FEW001 SCT003 BKN040 M02/M02 Q1021 RMK 1ST001 3ST003 6CU040 A3016
RJCC 250009Z VRB02KT 2400 BCFG BR FEW001 SCT003 BKN040 M02/M02 Q1021 RMK 1ST001 3ST003 6CU040 A3016
RJCC 242330Z VRB01KT 1200 R01L/P2000N R01R/P2000N BCFG BR VV002 M02/M02 Q1021
RJCC 242317Z 36003KT 0900 R01L/P2000N R01R/P2000N FZFG VV002 M02/M02 Q1021 RMK A3017
RJCC 242307Z 36004KT 320V020 2300 R01L/P2000N R01R/P2000N -SHSN BR FEW001 SCT002 BKN003 M02/M02 Q1021 RMK 1ST001 3ST002 6ST003 A3016
RJCC 242300Z 36003KT 2500 R01L/P2000N R01R/P2000N -SHSN BR FEW002 SCT003 BKN004 M02/M02 Q1021 RMK 2ST002 4ST003 5ST004 A3016 5000W
RJCC 242250Z 35004KT 3100 R01L/P2000N R01R/1500VP2000U -SHSN BCFG FEW002 BKN004 BKN007 M03/M03 Q1021 RMK 1ST002 5ST004 6ST007 A3016
RJCC 242230Z 32004KT 3500 R01L/1400VP2000U R01R/0800VP2000U -SHSN PRFG FEW002 BKN005 M03/M03 Q1020 RMK 1ST002 6ST005 A3015 FG SE-S
RJCC 242216Z 33003KT 1600 R01L/0500V0800U R01R/0750V1600U BCFG -SHSN FEW002 BKN005 M03/M03 Q1020 RMK 1ST002 6ST005 A3014
RJCC 242200Z 35003KT 1300 R01L/0550N R01R/0900V1400D BCFG -SHSN VV003 M03/M03 Q1020
RJCC 242148Z 02003KT 0900 R01L/0600V0800N R01R/1200VP2000D FZFG -SHSN VV003 M03/M03 Q1020 RMK A3014 5000W
RJCC 242134Z 10001KT 1400 R01L/0650VP2000D R01R/0900VP2000D -SHSN BCFG FEW002 BKN003 M03/M03 Q1020 RMK 1ST002 7ST003 A3014
RJCC 242121Z 08002KT 3100 R01L/P2000N R01R/P2000N -SHSN FEW002 BKN004 BKN015 M04/M04 Q1020 RMK 1ST002 5ST004 6ST015 A3013
RJCC 242100Z 00000KT 4500 -SHSN FEW003 SCT020 BKN035 M03/M03 Q1020 RMK 1ST003 4CU020 6CU035 A3013
RJCC 242030Z 00000KT 7000 -SHSN FEW003 SCT015 BKN035 M03/M03 Q1020 RMK 1ST003 3ST015 5CU035 A3012
RJCC 242000Z 33005KT 6000 R01L/P2000N R01R/0600VP2000D -SHSN FEW003 SCT020 BKN040 M05/M05 Q1020 RMK 1ST003 3CU020 6CU040 A3012
RJCC 241930Z 35006KT 2500 -SHSN FEW010 SCT015 BKN035 M02/M02 Q1019 RMK 1ST010 3ST015 7CU035 A3012
RJCC 241900Z 36006KT 4000 -SHSN FEW010 SCT020 BKN050 M02/M02 Q1019 RMK 1ST010 3CU020 7CU050 A3010
RJCC 241830Z 36007KT 3000 -SHSN BCFG FEW005 BKN050 M03/M03 Q1019 RMK 1ST005 7CU050 A3009
RJCC 241800Z 35005KT 5000 R01L/1300VP2000U R01R/0800VP2000D -SHSN BCFG FEW005 BKN050 M04/M04 Q1018 RMK 1ST005 5CU050 A3009
RJCC 241730Z 02003KT 2000 R01L/0800V1800U R01R/0400V1000D -SHSN BCFG FEW005 BKN050 M05/M05 Q1018 RMK 2ST005 5CU050 A3008
RJCC 241700Z VRB01KT 4000 -SHSN FEW003 BKN040 M03/M03 Q1018 RMK 1ST003 6CU040 A3008
RJCC 241630Z 31004KT 2000 -SHSN FEW003 BKN008 BKN015 M02/M02 Q1018 RMK 1ST003 5ST008 7ST015 A3008
RJCC 241600Z 35004KT 3500 -SHSN FEW003 BKN030 BKN045 M02/M02 Q1018 RMK 1ST003 5CU030 7CU045 A3007
RJCC 241530Z 33005KT 1800 -SHSN FEW003 SCT010 BKN018 M01/M01 Q1018 RMK 1ST003 4ST010 7ST018 A3006
RJCC 241524Z 34004KT 1200 R19R/P2000N R19L/P2000N -SHSN FEW003 BKN010 BKN015 M01/M01 Q1018 RMK 1ST003 5ST010 7ST015 A3006
RJCC 241500Z 33006KT 0900 R19R/1300VP2000D R19L/2000N SHSN VV008 M01/M01 Q1017 RMK A3005
RJCC 241430Z 32004KT 5000 -SHSN FEW003 SCT010 BKN025 M01/M01 Q1017 RMK 1ST003 4ST010 6CU025 A3004
RJCC 241400Z 34005KT 1400 R01L/P2000N R01R/P2000N -SHSN FEW004 SCT006 BKN010 M01/M01 Q1017 RMK 1ST004 4ST006 6ST010 A3004
RJCC 241330Z 34006KT 2500 -SHSN FEW005 SCT010 BKN020 M01/M01 Q1017 RMK 1ST005 4ST010 7CU020 A3004
RJCC 241313Z 34005KT 2400 -SHSN FEW008 BKN010 BKN020 M01/M01 Q1017 RMK 1ST008 5ST010 7CU020 A3003
RJCC 241300Z 34005KT 1200 R01L/P2000N R01R/P2000N -SHGSSN FEW003 BKN008 BKN020 M01/M01 Q1017 RMK 1ST003 5ST008 7CU020 A3003 SNOW PELLETS
RJCC 241248Z 34006KT 3000 -SHSNGS FEW002 SCT005 BKN030 M01/M01 Q1016 RMK 1ST002 4ST005 7CU030 A3003 SNOW PELLETS
RJCC 241230Z VRB02KT 6000 -SHSN FEW008 SCT025 BKN050 M01/M01 Q1016 RMK 2ST008 3CU025 6CU050 A3001
RJCC 241200Z 36004KT 6000 -SHSN FEW004 BKN025 M01/M01 Q1016 RMK 1ST004 7CU025 A3001
RJCC 241130Z 36001KT 5000 -SHSN FEW004 BKN030 M01/M01 Q1015 RMK 1ST004 7CU030 A3000
RJCC 241100Z 36003KT 6000 -SHSN FEW005 SCT030 BKN050 M01/M01 Q1015 RMK 1ST005 4CU030 7CU050 A2999
RJCC 241030Z 02001KT 7000 -SHSN FEW015 BKN040 M01/M01 Q1015 RMK 1ST015 6CU040 A2999
RJCC 241000Z VRB01KT 5000 -SHSN FEW015 BKN040 M01/M01 Q1015 RMK 1ST015 5CU040 A2999
RJCC 240930Z 36002KT 4000 -SHSN FEW012 SCT035 BKN060 M01/M01 Q1015 RMK 1ST012 4CU035 6CU060 A2999
RJCC 240900Z 35003KT 4000 -SHSN FEW015 SCT025 BKN050 M01/M01 Q1015 RMK 1ST015 4CU025 6CU050 A2998
RJCC 240830Z 35004KT 4500 -SHSN FEW012 SCT020 BKN040 M00/M02 Q1015 RMK 1ST012 4CU020 6CU040 A2997
RJCC 240818Z 33003KT 280V010 4900 -SHSN FEW015 SCT020 BKN045 00/M02 Q1015 RMK 1ST015 4CU020 6CU045 A2997
RJCC 240800Z 33004KT 9999 -SHSN FEW020 BKN060 00/M02 Q1014 RMK 1CU020 6CU060 A2996
RJCC 240730Z 02005KT 9999 -SHSN FEW020 BKN050 01/M03 Q1014 RMK 1CU020 5CU050 A2995
RJCC 240700Z 05005KT 9999 VCSH FEW020 BKN050 01/M03 Q1014 RMK 1CU020 6CU050 A2995 SH NW
RJCC 240630Z 02004KT 8000 -SHSN FEW020 BKN050 01/M04 Q1014 RMK 1CU020 7CU050 A2995
RJCC 240600Z VRB02KT 6000 -SHSN FEW020 BKN050 01/M04 Q1014 RMK 1CU020 7CU050 A2995
RJCC 240538Z 36005KT 340V050 4900 -SHSN FEW020 BKN030 02/M04 Q1014 RMK 1CU020 7CU030 A2995 9999NE
RJCC 240530Z 01006KT 9999 -SHSN FEW020 BKN030 02/M05 Q1014
RJCC 240500Z 03008KT 010V080 9999 FEW020 BKN040 02/M05 Q1013 RMK 1CU020 7CU040 A2993
RJCC 240430Z 07006KT 030V110 9999 FEW020 BKN060 03/M07 Q1013 RMK 1CU020 7CU060 A2994
RJCC 240400Z 08005KT 9999 FEW020 BKN060 03/M07 Q1014 RMK 1CU020 7CU060 A2994
RJCC 240330Z 09005KT 9999 FEW020 BKN060 02/M07 Q1014 RMK 1CU020 6CU060 A2996
RJCC 240300Z 05005KT 360V080 9999 FEW020 BKN070 02/M07 Q1015 RMK 1CU020 7AC070 A2997
RJCC 240230Z 04005KT 010V090 9999 FEW030 BKN080 BKN/// 02/M07 Q1015
RJCC 240200Z 05003KT 360V080 9999 FEW030 BKN100 BKN/// 02/M07 Q1015 RMK 1CU030 5AC100 A3000
RJCC 240130Z 04004KT 9999 FEW030 SCT150 BKN/// 02/M08 Q1016 RMK 1CU030 3AC150 A3000
RJCC 240100Z VRB02KT 9999 FEW030 SCT150 BKN/// 02/M07 Q1015 RMK 1CU030 3AC150 A3000
RJCC 240030Z VRB02KT 9999 FEW030 SCT/// 01/M07 Q1015
RJCC 240000Z 07003KT 020V170 9999 FEW030 M00/M05 Q1016 RMK 1CU030 A3000
RJCC 232330Z 14002KT 9999 FEW030 M03/M06 Q1016 RMK 1CU030 A3000
RJCC 232300Z 08004KT 9999 FEW030 SCT160 M06/M06 Q1016 RMK 1CU030 3AC160 A3000
RJCC 232230Z VRB01KT 9999 FEW030 BKN160 M06/M06 Q1015 RMK 1CU030 6AC160 A3000
RJCC 232200Z VRB01KT 9999 FEW030 BKN160 M07/M07 Q1015 RMK 1CU030 6AC160 A3000
RJCC 232130Z 13001KT 9999 FEW030 BKN150 M06/M06 Q1015 RMK 1CU030 5AC150 A2999
RJCC 232100Z 08002KT 9999 FEW030 BKN160 M08/M08 Q1015 RMK 1CU030 5AC160 A2999
RJCC 232030Z 17002KT 9999 FEW030 BKN170 M07/M08 Q1015 RMK 1CU030 5AC170 A2999
RJCC 232000Z 16003KT 9999 FEW030 M07/M08 Q1015 RMK 1CU030 A2998
RJCC 231930Z VRB02KT 9999 FEW030 M06/M06 Q1014 RMK 1CU030 A2997
RJCC 231900Z VRB02KT 9999 FEW030 M06/M06 Q1014 RMK 1CU030 A2996
RJCC 231830Z 25005KT 220V290 9999 FEW030 M06/M06 Q1014 RMK 1CU030 A2995
RJCC 231800Z VRB02KT 9999 FEW030 M04/M05 Q1014 RMK 1CU030 A2995
RJCC 231730Z 29010KT 9999 FEW030 M04/M06 Q1014 RMK 1CU030 A2995
RJCC 231700Z 29005KT 240V320 9999 FEW030 M03/M05 Q1013 RMK 1CU030 A2994
RJCC 231630Z 22004KT 9999 FEW030 SCT050 M01/M04 Q1013 RMK 1CU030 4CU050 A2994
RJCC 231600Z 23004KT 9999 FEW030 SCT040 M02/M02 Q1013 RMK 1CU030 3CU040 A2993
RJCC 231530Z 29004KT 240V340 9999 FEW030 M02/M03 Q1013 RMK 1CU030 A2992
RJCC 231500Z 34007KT 9999 FEW020 SCT050 M01/M03 Q1012 RMK 1CU020 3CU050 A2991
RJCC 231430Z 34012KT 9999 -SHSN FEW020 BKN050 00/M02 Q1012 RMK 1CU020 7CU050 A2990
RJCC 231400Z 33012KT 9999 -SHSN FEW020 BKN050 00/M02 Q1012 RMK 1CU020 7CU050 A2989
RJCC 231330Z 33010KT 9999 -SHSN FEW010 BKN050 00/M01 Q1012 RMK 1ST010 7CU050 A2988
RJCC 231300Z 32010KT 5000 -SHSN FEW010 BKN040 BKN060 M00/M01 Q1011 RMK 1ST010 6CU040 7CU060 A2987
RJCC 231230Z 33014KT 8000 -SHSN FEW010 SCT040 BKN060 M00/M01 Q1011 RMK 1ST010 3CU040 5CU060 A2986
RJCC 231200Z 32016KT 5000 -SHSN FEW010 SCT020 BKN040 M00/M01 Q1010 RMK 1ST010 3CU020 5CU040 A2984
RJCC 231130Z 32017KT 4000 -SHSN FEW005 SCT015 BKN040 00/M01 Q1010 RMK 1ST005 3ST015 6CU040 A2983
RJCC 231110Z 32014KT 3200 -SHSN FEW003 SCT008 BKN040 M00/M00 Q1009 RMK 1ST003 4ST008 7CU040 A2982
RJCC 231100Z 32013KT 1600 R01L/P2000N R01R/P2000N -SHSN FEW003 BKN008 BKN015 M00/M00 Q1009 RMK 1ST003 5ST008 7ST015 A2982
RJCC 231030Z 33013KT 2200 -SHSN FEW003 BKN007 BKN015 M00/M00 Q1009 RMK 1ST003 5ST007 6ST015 A2980
RJCC 231014Z 33013KT 1800 -SHSN FEW003 BKN007 BKN015 M00/M00 Q1009 RMK 1ST003 5ST007 6ST015 A2980
RJCC 231000Z 33016KT 2000 -SHSN FEW005 SCT008 BKN020 00/M00 Q1009 RMK 1ST005 4ST008 6CU020 A2979
RJCC 230938Z 34018KT 1400 R01L/P2000N R01R/P2000N -SHSN FEW006 SCT008 BKN015 00/M00 Q1008 RMK 1ST006 4ST008 6ST015 A2977
RJCC 230900Z 31019KT 9999 -SHSN FEW008 BKN045 01/M01 Q1007 RMK 1ST008 7CU045 A2976